Time;durP1;ratioP1;P1;durP2;ratioP2;P2;SDS_P1;SDS_P2;PMS_P1;PMS_P2;Temp;Humidity;BMP_temperature;BMP_pressure;BME280_temperature;BME280_humidity;BME280_pressure;Samples;Min_cycle;Max_cycle;Signal;HPM_P1;HPM_P2
2023/05/31 00:02:14;;;;;;;3.35;1.35;;;16.20;65.00;;;;;;6122336;23;20061;-62
2023/05/31 00:04:39;;;;;;;3.42;1.60;;;16.20;65.20;;;;;;6121919;23;20440;-62
2023/05/31 00:07:06;;;;;;;3.30;1.55;;;16.10;65.20;;;;;;6122414;23;20018;-63
2023/05/31 00:09:32;;;;;;;2.50;1.33;;;16.10;65.40;;;;;;6121972;23;20006;-62
2023/05/31 00:11:57;;;;;;;4.70;1.58;;;16.10;65.50;;;;;;6122373;23;20020;-63
2023/05/31 00:14:23;;;;;;;3.25;1.67;;;16.10;65.60;;;;;;6122181;23;20085;-63
2023/05/31 00:16:49;;;;;;;4.75;1.60;;;16.00;65.60;;;;;;6121949;23;20171;-62
2023/05/31 00:19:15;;;;;;;4.30;1.70;;;16.00;65.70;;;;;;6122351;23;20014;-63
2023/05/31 00:21:40;;;;;;;3.40;1.60;;;16.00;65.80;;;;;;6121560;23;20416;-63
2023/05/31 00:24:06;;;;;;;2.50;1.50;;;16.00;66.00;;;;;;6120242;23;20093;-63
2023/05/31 00:26:32;;;;;;;3.45;1.88;;;16.00;66.00;;;;;;6121415;23;20014;-63
2023/05/31 00:28:57;;;;;;;3.92;1.75;;;16.00;66.10;;;;;;6096059;23;20006;-63
2023/05/31 00:31:23;;;;;;;2.55;1.75;;;15.90;66.00;;;;;;6120283;23;20010;-63
2023/05/31 00:33:49;;;;;;;2.50;1.52;;;15.90;66.10;;;;;;6122521;23;20064;-63
2023/05/31 00:36:15;;;;;;;3.88;1.42;;;15.80;66.10;;;;;;6120959;23;20014;-63
2023/05/31 00:38:40;;;;;;;4.45;1.92;;;15.80;66.30;;;;;;6122512;23;20352;-63
2023/05/31 00:41:09;;;;;;;3.70;1.50;;;15.80;66.30;;;;;;6121127;23;20081;-63
2023/05/31 00:43:35;;;;;;;2.80;1.77;;;15.70;66.40;;;;;;6122764;23;20042;-63
2023/05/31 00:46:01;;;;;;;3.65;1.52;;;15.70;66.50;;;;;;6121603;23;20029;-63
2023/05/31 00:48:28;;;;;;;2.13;1.38;;;15.70;66.60;;;;;;6124496;23;20013;-63
2023/05/31 00:50:53;;;;;;;2.00;1.10;;;15.70;66.60;;;;;;6123235;23;20006;-63
2023/05/31 00:53:21;;;;;;;2.40;1.52;;;15.60;66.60;;;;;;6123514;23;20017;-64
2023/05/31 00:55:47;;;;;;;4.57;1.98;;;15.60;66.70;;;;;;6124563;23;20320;-63
2023/05/31 00:58:14;;;;;;;5.25;2.05;;;15.60;66.70;;;;;;6124394;23;20014;-64
2023/05/31 01:00:40;;;;;;;3.05;1.55;;;15.60;66.80;;;;;;6122569;23;20339;-64
2023/05/31 01:03:09;;;;;;;5.40;1.92;;;15.60;66.80;;;;;;6124361;23;20088;-63
2023/05/31 01:05:35;;;;;;;3.97;1.50;;;15.60;66.90;;;;;;6121533;23;20021;-63
2023/05/31 01:08:02;;;;;;;5.15;1.98;;;15.50;66.90;;;;;;6122461;23;20126;-64
2023/05/31 01:10:29;;;;;;;4.97;2.08;;;15.50;67.00;;;;;;6122107;23;20439;-63
2023/05/31 01:13:13;;;;;;;3.38;1.73;;;15.50;67.50;;;;;;6123978;23;20448;-63
2023/05/31 01:15:46;;;;;;;3.25;1.60;;;15.40;67.00;;;;;;6122948;23;20018;-63
2023/05/31 01:18:12;;;;;;;3.27;1.47;;;15.30;67.10;;;;;;6122810;23;20010;-63
2023/05/31 01:20:43;;;;;;;6.47;1.85;;;15.30;67.00;;;;;;6121950;23;20427;-63
2023/05/31 01:23:33;;;;;;;3.13;1.77;;;15.30;67.00;;;;;;6123289;23;20010;-64
2023/05/31 01:26:17;;;;;;;4.82;1.52;;;15.30;67.00;;;;;;6123639;23;20010;-64
2023/05/31 01:28:44;;;;;;;3.35;2.03;;;15.30;67.00;;;;;;6123664;23;20014;-62
2023/05/31 01:31:14;;;;;;;2.72;1.70;;;15.20;67.00;;;;;;6122730;23;20002;-63
2023/05/31 01:33:41;;;;;;;6.80;1.67;;;15.20;67.10;;;;;;6123292;23;20061;-63
2023/05/31 01:36:06;;;;;;;5.80;1.70;;;15.20;67.10;;;;;;6122792;23;20017;-63
2023/05/31 01:38:32;;;;;;;3.78;1.77;;;15.20;67.20;;;;;;6123792;23;20029;-63
2023/05/31 01:40:58;;;;;;;2.05;1.30;;;15.20;67.20;;;;;;6121804;23;20129;-64
2023/05/31 01:43:26;;;;;;;2.95;1.80;;;15.20;67.20;;;;;;6124238;23;20013;-63
2023/05/31 01:45:53;;;;;;;3.78;1.63;;;15.20;67.30;;;;;;6120797;23;20033;-64
2023/05/31 01:48:19;;;;;;;5.47;2.72;;;15.20;67.30;;;;;;6120844;23;20065;-63
2023/05/31 01:50:45;;;;;;;3.30;1.35;;;15.20;67.40;;;;;;6121684;23;20021;-63
2023/05/31 01:53:11;;;;;;;3.95;2.05;;;15.20;67.50;;;;;;6097497;23;20021;-64
2023/05/31 01:55:37;;;;;;;6.45;2.38;;;15.10;67.50;;;;;;6122995;23;20050;-63
2023/05/31 01:58:05;;;;;;;2.30;1.30;;;15.20;67.50;;;;;;6123813;23;20010;-63
2023/05/31 02:00:31;;;;;;;2.88;1.80;;;15.10;67.70;;;;;;6121745;23;20068;-63
2023/05/31 02:02:57;;;;;;;2.63;1.60;;;15.20;67.70;;;;;;6123023;23;20073;-63
2023/05/31 02:05:23;;;;;;;3.85;2.03;;;15.20;67.70;;;;;;6121815;23;20021;-78
2023/05/31 02:07:49;;;;;;;4.03;1.75;;;15.10;67.60;;;;;;6123632;23;20018;-76
2023/05/31 02:10:15;;;;;;;4.60;2.17;;;15.10;67.60;;;;;;6122728;23;20045;-76
2023/05/31 02:12:41;;;;;;;4.20;2.00;;;15.10;67.80;;;;;;6123390;23;20096;-76
2023/05/31 02:15:12;;;;;;;2.92;1.73;;;15.10;67.90;;;;;;6122530;23;20424;-76
2023/05/31 02:17:45;;;;;;;3.55;1.60;;;15.10;68.00;;;;;;6097927;23;20017;-75
2023/05/31 02:20:15;;;;;;;3.63;1.63;;;15.10;68.10;;;;;;6122046;23;20065;-76
2023/05/31 02:22:42;;;;;;;3.80;1.90;;;15.00;68.00;;;;;;6124257;23;20013;-78
2023/05/31 02:25:09;;;;;;;3.60;1.70;;;15.00;68.00;;;;;;6123056;23;20161;-79
2023/05/31 02:27:35;;;;;;;4.43;2.47;;;15.00;68.10;;;;;;6123196;23;20145;-77
2023/05/31 02:30:01;;;;;;;3.60;1.92;;;15.00;68.20;;;;;;6120939;23;20037;-79
2023/05/31 02:32:26;;;;;;;5.53;1.60;;;14.90;68.20;;;;;;6123650;23;20022;-78
2023/05/31 02:34:52;;;;;;;4.88;2.03;;;14.80;68.30;;;;;;6122991;23;20045;-78
2023/05/31 02:37:18;;;;;;;3.75;2.13;;;14.80;68.40;;;;;;6123898;23;20037;-79
2023/05/31 02:39:43;;;;;;;5.18;1.63;;;14.80;68.50;;;;;;6122484;23;20336;-77
2023/05/31 02:42:09;;;;;;;3.88;1.63;;;14.70;68.50;;;;;;6123192;23;20304;-76
2023/05/31 02:44:34;;;;;;;3.47;1.80;;;14.70;68.70;;;;;;6122532;23;20018;-78
2023/05/31 02:47:00;;;;;;;3.13;1.98;;;14.60;68.70;;;;;;6124369;23;20008;-76
2023/05/31 02:49:26;;;;;;;4.00;1.88;;;14.60;68.80;;;;;;6123664;23;20388;-78
2023/05/31 02:51:51;;;;;;;3.33;1.77;;;14.60;68.80;;;;;;6124017;23;20002;-77
2023/05/31 02:54:17;;;;;;;4.63;2.03;;;14.60;68.90;;;;;;6121768;23;20458;-77
2023/05/31 02:56:42;;;;;;;4.60;2.35;;;14.60;68.90;;;;;;6123999;23;20081;-78
2023/05/31 02:59:08;;;;;;;2.92;1.52;;;14.50;68.90;;;;;;6122016;23;20014;-77
2023/05/31 03:01:33;;;;;;;13.65;2.20;;;14.50;68.90;;;;;;6122440;23;20424;-78
2023/05/31 03:03:59;;;;;;;4.47;2.08;;;14.60;69.10;;;;;;6122025;23;20017;-78
2023/05/31 03:06:25;;;;;;;9.45;2.67;;;14.50;69.20;;;;;;6122790;23;20014;-77
2023/05/31 03:08:50;;;;;;;5.93;1.77;;;14.50;69.30;;;;;;6121799;23;20016;-76
2023/05/31 03:11:16;;;;;;;6.47;2.00;;;14.50;69.30;;;;;;6123048;23;20014;-76
2023/05/31 03:13:42;;;;;;;3.88;1.83;;;14.40;69.40;;;;;;6123393;23;20634;-78
2023/05/31 03:16:07;;;;;;;3.35;1.80;;;14.40;69.50;;;;;;6123119;23;20331;-78
2023/05/31 03:18:33;;;;;;;3.40;2.08;;;14.40;69.50;;;;;;6123383;23;20010;-80
2023/05/31 03:20:58;;;;;;;5.57;2.17;;;14.30;69.70;;;;;;6120400;23;20002;-81
2023/05/31 03:23:24;;;;;;;4.68;2.17;;;14.30;69.70;;;;;;6123276;23;20010;-79
2023/05/31 03:25:50;;;;;;;5.57;2.00;;;14.30;69.80;;;;;;6123251;23;20375;-77
2023/05/31 03:28:15;;;;;;;3.80;1.65;;;14.30;69.80;;;;;;6122005;23;20018;-81
2023/05/31 03:30:41;;;;;;;3.53;1.90;;;14.30;70.00;;;;;;6123252;23;20458;-77
2023/05/31 03:33:07;;;;;;;2.72;1.80;;;14.30;70.00;;;;;;6122050;23;20394;-77
2023/05/31 03:35:33;;;;;;;4.10;1.77;;;14.20;70.10;;;;;;6123783;23;20002;-76
2023/05/31 03:37:59;;;;;;;3.95;2.33;;;14.20;70.20;;;;;;6123516;23;20014;-76
2023/05/31 03:40:24;;;;;;;3.88;2.05;;;14.20;70.20;;;;;;6123677;23;20113;-77
2023/05/31 03:42:50;;;;;;;3.95;2.00;;;14.10;70.70;;;;;;6124095;23;20153;-76
2023/05/31 03:45:16;;;;;;;3.75;1.73;;;14.10;70.30;;;;;;6123639;23;20021;-76
2023/05/31 03:47:41;;;;;;;3.95;2.00;;;14.10;70.50;;;;;;6123961;23;20040;-76
2023/05/31 03:50:07;;;;;;;3.92;2.05;;;14.10;70.50;;;;;;6123043;23;20016;-77
2023/05/31 03:52:33;;;;;;;4.03;2.08;;;14.10;70.60;;;;;;6122651;23;20108;-77
2023/05/31 03:54:59;;;;;;;5.53;2.33;;;14.10;70.70;;;;;;6121722;23;20447;-77
2023/05/31 03:57:25;;;;;;;4.18;2.00;;;14.10;70.70;;;;;;6120777;23;20013;-77
2023/05/31 03:59:50;;;;;;;4.65;1.95;;;14.20;70.80;;;;;;6121959;23;20394;-77
2023/05/31 04:02:16;;;;;;;3.85;2.00;;;14.10;70.80;;;;;;6121876;23;20002;-78
2023/05/31 04:04:41;;;;;;;4.32;2.20;;;14.20;70.90;;;;;;6120995;23;20128;-76
2023/05/31 04:07:07;;;;;;;8.68;2.17;;;14.20;71.10;;;;;;6121782;23;20081;-78
2023/05/31 04:09:33;;;;;;;5.82;2.35;;;14.20;71.00;;;;;;6121670;23;20014;-78
2023/05/31 04:11:58;;;;;;;5.80;2.63;;;14.20;71.10;;;;;;6122509;23;20030;-78
2023/05/31 04:14:24;;;;;;;3.60;1.90;;;14.20;71.10;;;;;;6120869;23;20021;-79
2023/05/31 04:16:49;;;;;;;4.55;2.03;;;14.20;71.10;;;;;;6123236;23;20081;-79
2023/05/31 04:19:15;;;;;;;5.22;2.15;;;14.20;71.00;;;;;;6122041;23;20021;-82
2023/05/31 04:21:41;;;;;;;6.68;2.60;;;14.20;71.10;;;;;;6125191;23;20049;-78
2023/05/31 04:24:06;;;;;;;4.22;2.10;;;14.20;71.20;;;;;;6122927;23;20076;-78
2023/05/31 04:26:33;;;;;;;5.05;2.03;;;14.20;71.30;;;;;;6124024;23;20149;-80
2023/05/31 04:28:59;;;;;;;4.55;1.90;;;14.20;71.30;;;;;;6123584;23;20010;-80
2023/05/31 04:31:25;;;;;;;3.63;1.92;;;14.20;71.80;;;;;;6123884;23;20077;-81
2023/05/31 04:33:53;;;;;;;5.65;2.92;;;14.20;71.30;;;;;;6124761;23;20056;-78
2023/05/31 04:36:20;;;;;;;5.78;2.72;;;14.30;71.30;;;;;;6123963;23;20017;-78
2023/05/31 04:38:47;;;;;;;5.95;2.88;;;14.30;71.30;;;;;;6123404;23;20021;-78
2023/05/31 04:41:15;;;;;;;7.30;3.80;;;14.30;71.20;;;;;;6123156;23;20386;-78
2023/05/31 04:43:42;;;;;;;11.27;5.05;;;14.30;71.10;;;;;;6124813;23;20010;-78
2023/05/31 04:46:09;;;;;;;10.73;4.88;;;14.40;71.30;;;;;;6123265;23;20076;-79
2023/05/31 04:48:35;;;;;;;12.00;5.95;;;14.30;71.40;;;;;;6123740;23;20010;-79
2023/05/31 04:51:01;;;;;;;10.60;5.38;;;14.40;71.30;;;;;;6122783;23;20030;-79
2023/05/31 04:53:26;;;;;;;12.23;5.95;;;14.50;71.20;;;;;;6123572;23;20443;-78
2023/05/31 04:55:52;;;;;;;15.20;6.97;;;14.50;71.30;;;;;;6097794;23;20010;-78
2023/05/31 04:58:19;;;;;;;12.10;6.78;;;14.50;71.20;;;;;;6123231;23;20021;-79
2023/05/31 05:00:45;;;;;;;11.45;6.22;;;14.60;71.30;;;;;;6123785;23;20093;-80
2023/05/31 05:03:11;;;;;;;15.18;6.57;;;14.60;71.20;;;;;;6123156;23;20508;-79
2023/05/31 05:05:37;;;;;;;18.05;8.18;;;14.70;71.20;;;;;;6123240;23;20407;-78
2023/05/31 05:08:03;;;;;;;12.27;5.47;;;14.70;71.10;;;;;;6122929;23;20014;-79
2023/05/31 05:10:29;;;;;;;10.98;5.55;;;14.80;71.10;;;;;;6123364;23;20332;-71
2023/05/31 05:12:54;;;;;;;9.00;4.78;;;14.80;71.10;;;;;;6124183;23;20030;-75
2023/05/31 05:15:20;;;;;;;10.52;4.57;;;14.80;71.10;;;;;;6122752;23;20013;-73
2023/05/31 05:17:46;;;;;;;9.20;4.65;;;14.90;71.10;;;;;;6123288;23;20013;-72
2023/05/31 05:20:12;;;;;;;10.93;4.15;;;15.00;71.10;;;;;;6123144;23;20010;-76
2023/05/31 05:22:38;;;;;;;8.52;4.15;;;15.00;70.90;;;;;;6123907;23;20072;-76
2023/05/31 05:25:04;;;;;;;7.47;2.90;;;15.10;71.00;;;;;;6122637;23;20010;-76
2023/05/31 05:27:30;;;;;;;4.13;2.10;;;15.10;70.50;;;;;;6123776;23;20355;-74
2023/05/31 05:29:55;;;;;;;4.20;1.80;;;15.20;70.50;;;;;;6123244;23;20089;-75
2023/05/31 05:32:21;;;;;;;4.35;2.30;;;15.20;70.40;;;;;;6123279;23;20009;-75
2023/05/31 05:34:47;;;;;;;4.85;2.25;;;15.20;70.20;;;;;;6120996;23;20018;-74
2023/05/31 05:37:12;;;;;;;5.25;2.17;;;15.30;70.10;;;;;;6122106;23;20012;-74
2023/05/31 05:39:38;;;;;;;3.25;2.03;;;15.30;70.20;;;;;;6122057;23;20014;-74
2023/05/31 05:42:04;;;;;;;5.97;2.22;;;15.40;70.00;;;;;;6124040;23;20085;-74
2023/05/31 05:44:29;;;;;;;4.88;2.30;;;15.50;70.10;;;;;;6122371;23;20022;-74
2023/05/31 05:46:56;;;;;;;10.98;2.72;;;15.50;70.20;;;;;;6122887;23;20028;-74
2023/05/31 05:49:21;;;;;;;5.97;2.53;;;15.50;70.10;;;;;;6121511;23;20092;-75
2023/05/31 05:51:47;;;;;;;5.03;2.05;;;15.60;69.90;;;;;;6123327;23;20006;-74
2023/05/31 05:54:13;;;;;;;6.45;1.85;;;15.60;69.90;;;;;;6096736;23;20297;-74
2023/05/31 05:56:38;;;;;;;8.13;2.60;;;15.70;69.70;;;;;;6123086;23;20010;-75
2023/05/31 05:59:04;;;;;;;5.38;1.90;;;15.70;69.70;;;;;;6121935;23;20085;-74
2023/05/31 06:01:29;;;;;;;6.07;2.65;;;15.80;69.70;;;;;;6121572;23;20008;-74
2023/05/31 06:03:55;;;;;;;7.13;2.40;;;15.80;69.40;;;;;;6122228;23;20010;-74
2023/05/31 06:06:21;;;;;;;8.35;2.60;;;15.90;69.40;;;;;;6123189;23;20006;-73
2023/05/31 06:08:47;;;;;;;8.20;2.83;;;16.00;69.40;;;;;;6122049;23;20763;-73
2023/05/31 06:11:15;;;;;;;5.07;2.35;;;16.00;69.30;;;;;;6123593;23;20384;-75
2023/05/31 06:13:42;;;;;;;5.85;2.28;;;16.00;69.40;;;;;;6122451;23;20467;-72
2023/05/31 06:16:08;;;;;;;5.78;2.25;;;16.10;69.40;;;;;;6096200;23;20426;-72
2023/05/31 06:18:34;;;;;;;32.75;5.43;;;16.20;69.40;;;;;;6121833;23;20006;-74
2023/05/31 06:21:00;;;;;;;10.20;2.42;;;16.20;69.50;;;;;;6122569;23;20077;-73
2023/05/31 06:23:26;;;;;;;9.98;2.40;;;16.30;69.30;;;;;;6122588;23;20450;-74
2023/05/31 06:25:51;;;;;;;11.82;2.97;;;16.40;68.90;;;;;;6122529;23;20478;-74
2023/05/31 06:28:17;;;;;;;14.20;3.50;;;16.40;69.00;;;;;;6122754;23;20022;-73
2023/05/31 06:30:43;;;;;;;6.88;2.15;;;16.50;68.80;;;;;;6122064;23;20010;-72
2023/05/31 06:33:09;;;;;;;6.80;2.78;;;16.60;68.80;;;;;;6122271;23;20511;-72
2023/05/31 06:35:34;;;;;;;12.95;2.60;;;16.60;68.70;;;;;;6122180;23;20120;-72
2023/05/31 06:38:02;;;;;;;9.85;2.50;;;16.70;68.70;;;;;;6120198;23;20005;-72
2023/05/31 06:40:28;;;;;;;8.40;2.60;;;16.80;68.70;;;;;;6120319;23;20013;-73
2023/05/31 06:42:53;;;;;;;10.50;2.97;;;16.80;68.90;;;;;;6120723;23;20325;-73
2023/05/31 06:45:19;;;;;;;7.72;2.00;;;16.90;68.40;;;;;;6120725;23;20018;-72
2023/05/31 06:47:44;;;;;;;8.05;2.20;;;17.00;68.40;;;;;;6122262;23;20096;-72
2023/05/31 06:50:12;;;;;;;7.80;2.25;;;17.10;68.20;;;;;;6121824;23;20009;-72
2023/05/31 06:52:39;;;;;;;8.70;2.15;;;17.20;68.20;;;;;;6120650;23;20293;-76
2023/05/31 06:55:05;;;;;;;10.45;2.58;;;17.20;67.90;;;;;;6121721;23;20088;-71
2023/05/31 06:57:31;;;;;;;6.78;2.92;;;17.30;67.90;;;;;;6122120;23;20422;-72
2023/05/31 06:59:57;;;;;;;5.30;2.55;;;17.40;67.90;;;;;;6121800;23;20034;-76
2023/05/31 07:02:23;;;;;;;7.47;2.63;;;17.40;67.60;;;;;;6119038;23;20010;-72
2023/05/31 07:04:49;;;;;;;6.18;2.88;;;17.50;67.40;;;;;;6121679;23;20085;-79
2023/05/31 07:07:15;;;;;;;4.43;2.63;;;17.60;67.70;;;;;;6121872;23;20129;-73
2023/05/31 07:09:41;;;;;;;8.30;2.50;;;17.70;67.50;;;;;;6119685;23;20065;-73
2023/05/31 07:12:07;;;;;;;6.13;2.22;;;17.80;67.50;;;;;;6119856;23;20098;-74
2023/05/31 07:14:32;;;;;;;9.82;3.22;;;17.90;67.10;;;;;;6122140;23;20041;-73
2023/05/31 07:16:58;;;;;;;9.05;2.08;;;18.00;66.90;;;;;;6121146;23;20438;-75
2023/05/31 07:19:23;;;;;;;8.98;2.80;;;18.10;67.00;;;;;;6121766;23;20092;-73
2023/05/31 07:21:49;;;;;;;5.05;2.40;;;18.20;67.20;;;;;;6122038;23;20328;-74
2023/05/31 07:24:15;;;;;;;7.03;2.15;;;18.30;67.40;;;;;;6121658;23;20018;-76
2023/05/31 07:26:40;;;;;;;7.10;2.25;;;18.40;67.30;;;;;;6121101;23;20034;-73
2023/05/31 07:29:06;;;;;;;5.88;2.42;;;18.50;66.70;;;;;;6120278;23;20016;-72
2023/05/31 07:31:32;;;;;;;7.88;2.92;;;18.60;66.40;;;;;;6120642;23;20013;-73
2023/05/31 07:33:57;;;;;;;8.07;2.60;;;18.70;66.60;;;;;;6120676;23;20021;-73
2023/05/31 07:36:26;;;;;;;7.25;2.58;;;18.80;66.40;;;;;;6122162;23;20331;-72
2023/05/31 07:38:52;;;;;;;5.65;2.53;;;18.90;65.50;;;;;;6121770;23;20706;-72
2023/05/31 07:41:18;;;;;;;6.25;2.25;;;19.00;65.40;;;;;;6118707;23;20014;-71
2023/05/31 07:43:45;;;;;;;6.55;2.22;;;19.10;65.50;;;;;;6121692;23;20006;-73
2023/05/31 07:46:12;;;;;;;5.53;1.90;;;19.20;65.20;;;;;;6120134;23;20491;-72
2023/05/31 07:48:37;;;;;;;7.03;1.85;;;19.30;65.00;;;;;;6121989;23;20010;-73
2023/05/31 07:51:03;;;;;;;5.10;1.95;;;19.40;64.80;;;;;;6119845;23;20424;-72
2023/05/31 07:53:29;;;;;;;5.28;2.08;;;19.60;64.50;;;;;;6121656;23;20018;-72
2023/05/31 07:55:54;;;;;;;4.03;2.00;;;19.70;64.80;;;;;;6122610;23;20014;-72
2023/05/31 07:58:20;;;;;;;6.20;2.40;;;19.80;64.30;;;;;;6124296;23;20018;-73
2023/05/31 08:00:46;;;;;;;6.43;2.33;;;20.00;63.50;;;;;;6123239;23;20045;-73
2023/05/31 08:03:12;;;;;;;4.25;1.75;;;20.10;63.20;;;;;;6124632;23;20048;-72
2023/05/31 08:05:37;;;;;;;3.55;1.95;;;20.20;62.70;;;;;;6123115;23;20045;-72
2023/05/31 08:08:05;;;;;;;10.07;2.10;;;20.30;62.40;;;;;;6122960;23;20048;-72
2023/05/31 08:10:31;;;;;;;7.85;2.10;;;20.40;61.90;;;;;;6122601;23;20017;-73
2023/05/31 08:12:57;;;;;;;18.58;2.92;;;20.50;61.40;;;;;;6123492;23;20424;-72
2023/05/31 08:15:22;;;;;;;4.85;2.13;;;20.60;60.80;;;;;;6124091;23;20006;-68
2023/05/31 08:17:48;;;;;;;7.13;2.78;;;20.70;61.00;;;;;;6124679;23;20443;-68
2023/05/31 08:20:16;;;;;;;8.25;2.10;;;20.80;60.60;;;;;;6124269;23;20013;-69
2023/05/31 08:22:44;;;;;;;7.95;2.03;;;20.90;60.50;;;;;;6123944;23;20014;-69
2023/05/31 08:25:12;;;;;;;4.53;1.83;;;21.10;59.50;;;;;;6123774;23;20068;-69
2023/05/31 08:27:40;;;;;;;4.90;2.15;;;21.10;59.10;;;;;;6121514;23;20038;-69
2023/05/31 08:30:09;;;;;;;3.40;1.65;;;21.20;58.50;;;;;;6122823;23;20013;-69
2023/05/31 08:32:34;;;;;;;4.72;1.80;;;21.30;58.30;;;;;;6123703;23;20481;-69
2023/05/31 08:35:00;;;;;;;3.50;1.65;;;21.30;56.70;;;;;;6122519;23;20430;-68
2023/05/31 08:37:26;;;;;;;3.80;1.50;;;21.40;55.50;;;;;;6123943;23;20018;-69
2023/05/31 08:39:51;;;;;;;3.70;1.58;;;21.50;54.90;;;;;;6122511;23;20042;-68
2023/05/31 08:42:25;;;;;;;3.28;1.40;;;21.50;54.00;;;;;;6122744;23;20014;-68
2023/05/31 08:44:51;;;;;;;3.15;1.60;;;21.60;53.80;;;;;;6122224;23;20117;-69
2023/05/31 08:47:28;;;;;;;2.95;1.65;;;21.60;52.90;;;;;;6123326;23;20621;-68
2023/05/31 08:49:55;;;;;;;4.90;1.75;;;21.60;53.50;;;;;;6121408;23;20105;-69
2023/05/31 08:52:21;;;;;;;3.42;1.60;;;21.60;53.40;;;;;;6122946;23;20014;-68
2023/05/31 08:54:49;;;;;;;5.68;2.03;;;21.70;54.30;;;;;;6122842;23;20010;-68
2023/05/31 08:57:15;;;;;;;4.82;2.47;;;21.70;53.90;;;;;;6124636;23;20010;-68
2023/05/31 08:59:44;;;;;;;4.80;1.58;;;21.90;53.50;;;;;;6123913;23;20037;-70
2023/05/31 09:02:12;;;;;;;2.85;1.50;;;21.90;52.30;;;;;;6095634;23;20037;-69
2023/05/31 09:04:39;;;;;;;2.47;1.60;;;21.90;52.40;;;;;;6122020;23;20034;-68
2023/05/31 09:07:05;;;;;;;3.38;1.30;;;22.00;52.10;;;;;;6123392;23;20018;-67
2023/05/31 09:09:31;;;;;;;3.20;1.63;;;22.00;52.10;;;;;;6122429;23;20093;-67
2023/05/31 09:11:56;;;;;;;7.03;2.25;;;22.10;52.30;;;;;;6123521;23;20316;-67
2023/05/31 09:14:24;;;;;;;4.32;1.63;;;22.20;53.20;;;;;;6122173;23;20026;-68
2023/05/31 09:16:50;;;;;;;3.28;1.52;;;22.20;52.80;;;;;;6118986;23;20052;-68
2023/05/31 09:19:16;;;;;;;5.25;1.92;;;22.30;53.60;;;;;;6120151;23;20014;-68
2023/05/31 09:21:43;;;;;;;9.02;2.03;;;22.40;52.90;;;;;;6123813;23;20009;-68
2023/05/31 09:24:10;;;;;;;5.57;1.30;;;22.50;52.20;;;;;;6122592;23;20413;-69
2023/05/31 09:26:45;;;;;;;4.22;1.67;;;22.60;52.40;;;;;;6122093;23;20017;-68
2023/05/31 09:29:11;;;;;;;20.40;2.20;;;22.70;51.40;;;;;;6122962;23;20074;-68
2023/05/31 09:31:37;;;;;;;3.08;1.38;;;22.70;51.00;;;;;;6122871;23;20010;-67
2023/05/31 09:34:02;;;;;;;4.43;2.03;;;22.70;50.10;;;;;;6122557;23;20018;-67
2023/05/31 09:36:31;;;;;;;4.13;1.70;;;22.70;51.00;;;;;;6121961;23;20029;-68
2023/05/31 09:39:05;;;;;;;3.70;1.30;;;22.80;51.20;;;;;;6122587;23;20085;-66
2023/05/31 09:41:32;;;;;;;3.20;1.48;;;22.80;51.10;;;;;;6122468;23;20013;-67
2023/05/31 09:43:58;;;;;;;2.13;1.60;;;22.80;51.20;;;;;;6122373;23;20006;-69
2023/05/31 09:46:25;;;;;;;5.10;2.08;;;22.90;51.20;;;;;;6122637;23;20097;-67
2023/05/31 09:49:01;;;;;;;26.95;2.20;;;22.90;51.40;;;;;;6121204;23;20041;-67
2023/05/31 09:51:27;;;;;;;2.20;1.50;;;23.00;51.10;;;;;;6122346;23;20033;-69
2023/05/31 09:53:55;;;;;;;5.55;1.90;;;23.00;50.60;;;;;;6122697;23;20399;-68
2023/05/31 09:56:23;;;;;;;2.33;1.40;;;23.00;50.10;;;;;;6121628;23;20006;-68
2023/05/31 09:58:51;;;;;;;5.55;1.55;;;23.10;50.60;;;;;;6123013;23;20102;-68
2023/05/31 10:01:19;;;;;;;6.22;1.60;;;23.20;50.00;;;;;;6121909;23;20013;-68
2023/05/31 10:03:46;;;;;;;2.33;1.25;;;23.10;49.70;;;;;;6122555;23;20014;-68
2023/05/31 10:06:16;;;;;;;2.80;1.40;;;23.10;49.00;;;;;;6122616;23;20002;-68
2023/05/31 10:08:43;;;;;;;4.28;1.67;;;23.20;48.70;;;;;;6122677;23;20010;-67
2023/05/31 10:11:12;;;;;;;2.40;1.52;;;23.20;48.00;;;;;;6122244;23;20053;-67
2023/05/31 10:13:41;;;;;;;3.05;1.42;;;23.10;47.90;;;;;;6122766;23;20506;-68
2023/05/31 10:16:09;;;;;;;2.05;1.20;;;23.10;48.40;;;;;;6121215;23;20013;-68
2023/05/31 10:18:40;;;;;;;4.30;1.25;;;23.20;48.00;;;;;;6123112;23;20014;-67
2023/05/31 10:21:14;;;;;;;4.45;1.40;;;23.20;48.10;;;;;;6122333;23;20014;-66
2023/05/31 10:23:45;;;;;;;4.00;1.50;;;23.30;49.20;;;;;;6123098;23;20021;-67
2023/05/31 10:26:15;;;;;;;2.45;1.42;;;23.40;49.50;;;;;;6122323;23;20238;-67
2023/05/31 10:29:03;;;;;;;3.03;1.40;;;23.50;48.90;;;;;;6122844;23;20367;-67
2023/05/31 10:31:33;;;;;;;2.88;1.33;;;23.50;48.20;;;;;;6121490;23;20010;-68
2023/05/31 10:34:25;;;;;;;4.63;1.58;;;23.60;49.10;;;;;;6121574;23;20436;-67
2023/05/31 10:36:55;;;;;;;2.22;1.40;;;23.70;49.30;;;;;;6122865;23;20010;-67
2023/05/31 10:39:52;;;;;;;2.83;1.48;;;23.80;48.70;;;;;;6121212;23;20006;-67
2023/05/31 10:42:35;;;;;;;4.28;1.40;;;23.90;48.60;;;;;;6122503;23;20002;-67
2023/05/31 10:45:17;;;;;;;3.03;1.40;;;24.00;48.40;;;;;;6122552;23;20030;-67
2023/05/31 10:47:51;;;;;;;2.53;1.30;;;24.10;48.90;;;;;;6117580;23;20077;-68
2023/05/31 10:50:21;;;;;;;3.10;1.30;;;24.20;48.80;;;;;;6095556;23;20045;-68
2023/05/31 10:52:50;;;;;;;2.33;1.73;;;24.30;48.70;;;;;;6120400;23;20121;-67
2023/05/31 10:55:22;;;;;;;6.78;1.42;;;24.30;48.50;;;;;;6122685;23;20013;-67
2023/05/31 10:57:53;;;;;;;3.15;1.35;;;24.40;47.90;;;;;;6121462;23;20017;-68
2023/05/31 11:00:20;;;;;;;3.53;1.55;;;24.40;48.20;;;;;;6121789;23;20040;-68
2023/05/31 11:02:58;;;;;;;12.93;1.98;;;24.50;48.60;;;;;;6122727;23;20005;-68
2023/05/31 11:05:26;;;;;;;3.22;1.73;;;24.50;48.40;;;;;;6122456;23;20010;-69
2023/05/31 11:07:52;;;;;;;3.67;1.85;;;24.60;48.00;;;;;;6122281;23;20009;-68
2023/05/31 11:10:29;;;;;;;2.30;1.40;;;24.70;47.90;;;;;;6121145;23;20493;-67
2023/05/31 11:13:04;;;;;;;2.35;1.40;;;24.70;47.60;;;;;;6096490;23;20080;-67
2023/05/31 11:15:46;;;;;;;2.65;1.30;;;24.70;47.20;;;;;;6122333;23;20459;-67
2023/05/31 11:18:22;;;;;;;3.10;1.60;;;24.70;46.50;;;;;;6122833;23;20448;-66
2023/05/31 11:20:48;;;;;;;2.70;1.25;;;24.60;46.70;;;;;;6121710;23;20350;-67
2023/05/31 11:23:28;;;;;;;3.15;1.50;;;24.50;46.50;;;;;;6122694;23;20033;-68
2023/05/31 11:26:07;;;;;;;3.05;1.35;;;24.60;46.50;;;;;;6121298;23;20321;-68
2023/05/31 11:28:57;;;;;;;2.75;1.23;;;24.60;46.60;;;;;;6122572;23;20086;-67
2023/05/31 11:31:58;;;;;;;1.88;0.90;;;24.60;46.70;;;;;;6122433;23;20013;-68
2023/05/31 11:34:33;;;;;;;1.35;1.10;;;24.50;45.90;;;;;;6095767;23;20026;-68
2023/05/31 11:37:03;;;;;;;3.63;1.05;;;24.50;45.40;;;;;;6122037;23;20016;-67
2023/05/31 11:39:30;;;;;;;2.53;1.67;;;24.50;45.50;;;;;;6122298;23;20072;-68
2023/05/31 11:41:56;;;;;;;2.40;1.00;;;24.50;45.00;;;;;;6121772;23;20414;-68
2023/05/31 15:23:48;;;;;;;3.92;1.20;;;29.20;36.50;;;;;;6109263;23;20066;-68
2023/05/31 15:26:14;;;;;;;1.88;1.10;;;29.40;36.40;;;;;;6091283;23;20029;-69
2023/05/31 15:28:40;;;;;;;1.05;0.77;;;29.40;36.10;;;;;;6091637;23;20006;-68
2023/05/31 15:31:08;;;;;;;1.20;0.80;;;29.40;35.80;;;;;;6091408;23;20022;-68
2023/05/31 15:33:40;;;;;;;2.35;1.15;;;29.40;36.00;;;;;;6093076;23;20137;-68
2023/05/31 15:36:06;;;;;;;4.03;1.10;;;29.30;36.00;;;;;;6092183;23;20010;-68
2023/05/31 15:38:35;;;;;;;1.77;0.98;;;29.20;36.10;;;;;;6092018;23;20018;-68
2023/05/31 15:41:01;;;;;;;1.67;0.95;;;29.20;36.20;;;;;;6091307;23;20062;-68
2023/05/31 15:43:27;;;;;;;0.82;0.82;;;29.10;36.40;;;;;;6091774;23;20015;-68
2023/05/31 15:45:54;;;;;;;1.98;1.00;;;29.10;36.90;;;;;;6090886;23;20018;-68
2023/05/31 15:48:20;;;;;;;1.90;1.02;;;29.10;37.00;;;;;;6092036;23;20530;-68
2023/05/31 15:50:47;;;;;;;2.90;1.70;;;29.10;37.10;;;;;;6091004;23;20105;-68
2023/05/31 15:53:13;;;;;;;4.45;1.63;;;29.00;37.10;;;;;;6092849;23;20108;-69
2023/05/31 15:55:42;;;;;;;1.33;1.00;;;29.00;37.20;;;;;;6066076;23;20010;-69
2023/05/31 15:58:07;;;;;;;1.20;0.95;;;29.00;37.60;;;;;;6091638;23;20420;-68
2023/05/31 16:00:33;;;;;;;2.47;1.27;;;28.90;36.80;;;;;;6091348;23;20018;-69
2023/05/31 16:02:58;;;;;;;2.80;1.35;;;28.80;36.90;;;;;;6091760;23;20463;-68
2023/05/31 16:05:24;;;;;;;3.42;1.20;;;28.80;36.90;;;;;;6091180;23;20022;-68
2023/05/31 16:07:50;;;;;;;2.67;1.35;;;28.70;36.80;;;;;;6094002;23;20007;-65
2023/05/31 16:10:15;;;;;;;2.63;1.42;;;28.70;36.90;;;;;;6090697;23;20018;-66
2023/05/31 16:12:42;;;;;;;1.90;1.08;;;28.70;36.90;;;;;;6092954;23;20006;-65
2023/05/31 16:15:09;;;;;;;3.55;1.33;;;28.60;36.60;;;;;;6091577;23;20087;-67
2023/05/31 16:17:34;;;;;;;2.03;1.02;;;28.50;36.90;;;;;;6095206;23;20081;-65
2023/05/31 16:20:00;;;;;;;2.40;1.38;;;28.50;37.30;;;;;;6093127;23;20049;-66
2023/05/31 16:22:26;;;;;;;4.90;2.75;;;28.40;37.30;;;;;;6093574;23;20011;-67
2023/05/31 16:24:52;;;;;;;2.22;1.20;;;28.40;37.60;;;;;;6084469;23;20026;-66
2023/05/31 16:27:18;;;;;;;1.50;1.23;;;28.30;37.70;;;;;;6122711;23;20097;-66